sensor_id;sensor_type;location;lat;lon;timestamp;P1;durP1;ratioP1;P2;durP2;ratioP2
65879;SDS011;52661;51.364;6.054;2022-12-01T00:00:52;26.70;;;8.67;;
65879;SDS011;52661;51.364;6.054;2022-12-01T00:03:18;25.88;;;7.25;;
65879;SDS011;52661;51.364;6.054;2022-12-01T00:05:44;17.50;;;6.85;;
65879;SDS011;52661;51.364;6.054;2022-12-01T00:08:09;26.90;;;10.17;;
65879;SDS011;52661;51.364;6.054;2022-12-01T00:10:34;22.00;;;7.97;;
65879;SDS011;52661;51.364;6.054;2022-12-01T00:13:01;26.03;;;8.80;;
65879;SDS011;52661;51.364;6.054;2022-12-01T00:15:28;26.17;;;9.30;;
65879;SDS011;52661;51.364;6.054;2022-12-01T00:18:03;26.17;;;9.13;;
65879;SDS011;52661;51.364;6.054;2022-12-01T00:20:32;28.33;;;9.52;;
65879;SDS011;52661;51.364;6.054;2022-12-01T00:22:59;36.38;;;11.30;;
65879;SDS011;52661;51.364;6.054;2022-12-01T00:25:25;31.40;;;10.05;;
65879;SDS011;52661;51.364;6.054;2022-12-01T00:27:51;35.53;;;9.43;;
65879;SDS011;52661;51.364;6.054;2022-12-01T00:30:18;32.67;;;10.00;;
65879;SDS011;52661;51.364;6.054;2022-12-01T00:32:44;30.20;;;9.68;;
65879;SDS011;52661;51.364;6.054;2022-12-01T00:35:10;28.80;;;10.75;;
65879;SDS011;52661;51.364;6.054;2022-12-01T00:37:36;35.85;;;10.30;;
65879;SDS011;52661;51.364;6.054;2022-12-01T00:40:02;34.33;;;10.90;;
65879;SDS011;52661;51.364;6.054;2022-12-01T00:42:28;34.40;;;11.73;;
65879;SDS011;52661;51.364;6.054;2022-12-01T00:44:54;33.85;;;10.93;;
65879;SDS011;52661;51.364;6.054;2022-12-01T00:47:19;40.58;;;11.82;;
65879;SDS011;52661;51.364;6.054;2022-12-01T00:49:45;34.58;;;11.25;;
65879;SDS011;52661;51.364;6.054;2022-12-01T00:52:11;33.55;;;11.40;;
65879;SDS011;52661;51.364;6.054;2022-12-01T00:54:36;40.30;;;13.98;;
65879;SDS011;52661;51.364;6.054;2022-12-01T00:57:02;32.93;;;9.83;;
65879;SDS011;52661;51.364;6.054;2022-12-01T00:59:27;32.67;;;9.70;;
65879;SDS011;52661;51.364;6.054;2022-12-01T01:01:52;33.03;;;10.33;;
65879;SDS011;52661;51.364;6.054;2022-12-01T01:04:18;39.80;;;12.23;;
65879;SDS011;52661;51.364;6.054;2022-12-01T01:06:44;30.50;;;9.02;;
65879;SDS011;52661;51.364;6.054;2022-12-01T01:09:10;33.45;;;10.77;;
65879;SDS011;52661;51.364;6.054;2022-12-01T01:11:36;37.55;;;11.95;;
65879;SDS011;52661;51.364;6.054;2022-12-01T01:14:01;29.43;;;9.97;;
65879;SDS011;52661;51.364;6.054;2022-12-01T01:16:27;31.60;;;8.88;;
65879;SDS011;52661;51.364;6.054;2022-12-01T01:18:52;35.00;;;10.90;;
65879;SDS011;52661;51.364;6.054;2022-12-01T01:21:19;30.33;;;8.05;;
65879;SDS011;52661;51.364;6.054;2022-12-01T01:23:46;35.72;;;10.43;;
65879;SDS011;52661;51.364;6.054;2022-12-01T01:26:20;35.60;;;11.15;;
65879;SDS011;52661;51.364;6.054;2022-12-01T01:28:48;33.00;;;11.18;;
65879;SDS011;52661;51.364;6.054;2022-12-01T01:31:23;39.63;;;11.32;;
65879;SDS011;52661;51.364;6.054;2022-12-01T01:33:50;36.72;;;11.52;;
65879;SDS011;52661;51.364;6.054;2022-12-01T01:36:16;29.42;;;9.55;;
65879;SDS011;52661;51.364;6.054;2022-12-01T01:38:42;33.05;;;11.48;;
65879;SDS011;52661;51.364;6.054;2022-12-01T01:41:09;35.00;;;10.15;;
65879;SDS011;52661;51.364;6.054;2022-12-01T01:46:03;33.83;;;10.38;;
65879;SDS011;52661;51.364;6.054;2022-12-01T01:48:29;29.00;;;9.68;;
65879;SDS011;52661;51.364;6.054;2022-12-01T01:50:55;40.25;;;11.93;;
65879;SDS011;52661;51.364;6.054;2022-12-01T01:53:21;33.40;;;9.75;;
65879;SDS011;52661;51.364;6.054;2022-12-01T01:55:47;32.17;;;10.45;;
65879;SDS011;52661;51.364;6.054;2022-12-01T01:58:13;33.92;;;10.27;;
65879;SDS011;52661;51.364;6.054;2022-12-01T02:00:39;36.47;;;10.57;;
65879;SDS011;52661;51.364;6.054;2022-12-01T02:03:07;29.67;;;9.32;;
65879;SDS011;52661;51.364;6.054;2022-12-01T02:05:36;37.20;;;10.60;;
65879;SDS011;52661;51.364;6.054;2022-12-01T02:08:02;34.45;;;10.73;;
65879;SDS011;52661;51.364;6.054;2022-12-01T02:10:54;35.00;;;10.15;;
65879;SDS011;52661;51.364;6.054;2022-12-01T02:18:51;24.92;;;8.32;;
65879;SDS011;52661;51.364;6.054;2022-12-01T02:26:58;37.58;;;11.02;;
65879;SDS011;52661;51.364;6.054;2022-12-01T02:29:47;29.45;;;9.98;;
65879;SDS011;52661;51.364;6.054;2022-12-01T02:32:21;29.02;;;9.77;;
65879;SDS011;52661;51.364;6.054;2022-12-01T02:35:12;33.38;;;10.82;;
65879;SDS011;52661;51.364;6.054;2022-12-01T02:37:58;28.75;;;9.68;;
65879;SDS011;52661;51.364;6.054;2022-12-01T02:40:36;32.45;;;10.82;;
65879;SDS011;52661;51.364;6.054;2022-12-01T02:45:49;29.70;;;9.90;;
65879;SDS011;52661;51.364;6.054;2022-12-01T02:48:27;28.70;;;9.18;;
65879;SDS011;52661;51.364;6.054;2022-12-01T02:50:55;31.23;;;9.27;;
65879;SDS011;52661;51.364;6.054;2022-12-01T02:53:23;33.53;;;10.30;;
65879;SDS011;52661;51.364;6.054;2022-12-01T02:55:53;31.88;;;10.52;;
65879;SDS011;52661;51.364;6.054;2022-12-01T02:58:21;34.67;;;10.60;;
65879;SDS011;52661;51.364;6.054;2022-12-01T03:14:55;33.08;;;8.85;;
65879;SDS011;52661;51.364;6.054;2022-12-01T03:17:35;34.72;;;11.95;;
65879;SDS011;52661;51.364;6.054;2022-12-01T03:20:23;30.50;;;9.32;;
65879;SDS011;52661;51.364;6.054;2022-12-01T03:23:11;35.58;;;10.90;;
65879;SDS011;52661;51.364;6.054;2022-12-01T03:25:40;40.50;;;11.80;;
65879;SDS011;52661;51.364;6.054;2022-12-01T03:28:10;36.67;;;10.77;;
65879;SDS011;52661;51.364;6.054;2022-12-01T03:30:39;44.03;;;13.43;;
65879;SDS011;52661;51.364;6.054;2022-12-01T03:33:12;33.05;;;9.95;;
65879;SDS011;52661;51.364;6.054;2022-12-01T03:35:47;39.30;;;13.32;;
65879;SDS011;52661;51.364;6.054;2022-12-01T03:38:23;40.95;;;11.95;;
65879;SDS011;52661;51.364;6.054;2022-12-01T03:40:50;32.85;;;10.88;;
65879;SDS011;52661;51.364;6.054;2022-12-01T03:43:22;52.50;;;13.82;;
65879;SDS011;52661;51.364;6.054;2022-12-01T03:48:26;36.65;;;12.93;;
65879;SDS011;52661;51.364;6.054;2022-12-01T03:51:39;32.97;;;9.55;;
65879;SDS011;52661;51.364;6.054;2022-12-01T03:53:52;36.88;;;10.52;;
65879;SDS011;52661;51.364;6.054;2022-12-01T03:56:25;41.63;;;12.05;;
65879;SDS011;52661;51.364;6.054;2022-12-01T03:58:55;40.65;;;11.50;;
65879;SDS011;52661;51.364;6.054;2022-12-01T04:01:22;36.58;;;10.70;;
65879;SDS011;52661;51.364;6.054;2022-12-01T04:03:48;30.08;;;9.70;;
65879;SDS011;52661;51.364;6.054;2022-12-01T04:06:13;48.33;;;12.43;;
65879;SDS011;52661;51.364;6.054;2022-12-01T04:08:39;42.72;;;11.15;;
65879;SDS011;52661;51.364;6.054;2022-12-01T04:11:04;42.58;;;11.68;;
65879;SDS011;52661;51.364;6.054;2022-12-01T04:13:49;43.60;;;12.88;;
65879;SDS011;52661;51.364;6.054;2022-12-01T04:16:15;37.73;;;11.43;;
65879;SDS011;52661;51.364;6.054;2022-12-01T04:18:40;40.83;;;11.27;;
65879;SDS011;52661;51.364;6.054;2022-12-01T04:21:05;45.33;;;12.60;;
65879;SDS011;52661;51.364;6.054;2022-12-01T04:23:30;45.50;;;12.47;;
65879;SDS011;52661;51.364;6.054;2022-12-01T04:26:14;33.03;;;10.52;;
65879;SDS011;52661;51.364;6.054;2022-12-01T04:28:40;41.93;;;11.77;;
65879;SDS011;52661;51.364;6.054;2022-12-01T04:31:05;31.17;;;10.27;;
65879;SDS011;52661;51.364;6.054;2022-12-01T04:33:30;47.17;;;12.47;;
65879;SDS011;52661;51.364;6.054;2022-12-01T04:35:57;43.83;;;11.93;;
65879;SDS011;52661;51.364;6.054;2022-12-01T04:38:23;43.95;;;12.15;;
65879;SDS011;52661;51.364;6.054;2022-12-01T04:40:49;41.65;;;11.68;;
65879;SDS011;52661;51.364;6.054;2022-12-01T04:43:14;45.27;;;10.83;;
65879;SDS011;52661;51.364;6.054;2022-12-01T04:45:39;42.97;;;11.83;;
65879;SDS011;52661;51.364;6.054;2022-12-01T04:48:05;47.37;;;11.37;;
65879;SDS011;52661;51.364;6.054;2022-12-01T04:50:30;40.78;;;11.27;;
65879;SDS011;52661;51.364;6.054;2022-12-01T04:52:55;49.00;;;12.00;;
65879;SDS011;52661;51.364;6.054;2022-12-01T04:55:21;50.43;;;10.93;;
65879;SDS011;52661;51.364;6.054;2022-12-01T04:57:46;41.28;;;10.25;;
65879;SDS011;52661;51.364;6.054;2022-12-01T05:00:12;46.83;;;11.25;;
65879;SDS011;52661;51.364;6.054;2022-12-01T05:02:38;45.72;;;10.57;;
65879;SDS011;52661;51.364;6.054;2022-12-01T05:05:07;36.33;;;9.05;;
65879;SDS011;52661;51.364;6.054;2022-12-01T05:07:33;43.97;;;12.52;;
65879;SDS011;52661;51.364;6.054;2022-12-01T05:09:58;43.80;;;10.97;;
65879;SDS011;52661;51.364;6.054;2022-12-01T05:12:24;36.60;;;10.57;;
65879;SDS011;52661;51.364;6.054;2022-12-01T05:14:49;40.33;;;10.10;;
65879;SDS011;52661;51.364;6.054;2022-12-01T05:17:14;40.30;;;9.57;;
65879;SDS011;52661;51.364;6.054;2022-12-01T05:19:40;36.30;;;8.77;;
65879;SDS011;52661;51.364;6.054;2022-12-01T05:22:24;38.75;;;11.05;;
65879;SDS011;52661;51.364;6.054;2022-12-01T05:24:49;35.43;;;10.43;;
65879;SDS011;52661;51.364;6.054;2022-12-01T05:27:14;35.93;;;8.87;;
65879;SDS011;52661;51.364;6.054;2022-12-01T05:29:39;37.37;;;9.70;;
65879;SDS011;52661;51.364;6.054;2022-12-01T05:32:05;35.37;;;8.33;;
65879;SDS011;52661;51.364;6.054;2022-12-01T05:34:30;31.70;;;9.80;;
65879;SDS011;52661;51.364;6.054;2022-12-01T05:36:55;30.23;;;9.63;;
65879;SDS011;52661;51.364;6.054;2022-12-01T05:39:21;26.90;;;7.70;;
65879;SDS011;52661;51.364;6.054;2022-12-01T05:41:46;32.07;;;8.43;;
65879;SDS011;52661;51.364;6.054;2022-12-01T05:44:11;31.60;;;8.00;;
65879;SDS011;52661;51.364;6.054;2022-12-01T05:46:36;36.50;;;8.60;;
65879;SDS011;52661;51.364;6.054;2022-12-01T05:49:02;34.67;;;9.77;;
65879;SDS011;52661;51.364;6.054;2022-12-01T05:51:27;34.47;;;9.53;;
65879;SDS011;52661;51.364;6.054;2022-12-01T05:53:52;37.77;;;9.83;;
65879;SDS011;52661;51.364;6.054;2022-12-01T05:56:18;28.90;;;7.73;;
65879;SDS011;52661;51.364;6.054;2022-12-01T05:58:43;27.73;;;7.63;;
65879;SDS011;52661;51.364;6.054;2022-12-01T06:01:08;31.17;;;8.27;;
65879;SDS011;52661;51.364;6.054;2022-12-01T06:03:34;26.35;;;6.72;;
65879;SDS011;52661;51.364;6.054;2022-12-01T06:06:00;27.13;;;7.38;;
65879;SDS011;52661;51.364;6.054;2022-12-01T06:08:25;28.95;;;8.88;;
65879;SDS011;52661;51.364;6.054;2022-12-01T06:10:51;23.00;;;6.10;;
65879;SDS011;52661;51.364;6.054;2022-12-01T06:13:16;20.43;;;6.43;;
65879;SDS011;52661;51.364;6.054;2022-12-01T06:15:41;20.73;;;5.90;;
65879;SDS011;52661;51.364;6.054;2022-12-01T06:18:07;28.13;;;7.57;;
65879;SDS011;52661;51.364;6.054;2022-12-01T06:20:32;20.08;;;6.45;;
65879;SDS011;52661;51.364;6.054;2022-12-01T06:22:58;16.83;;;5.60;;
65879;SDS011;52661;51.364;6.054;2022-12-01T06:25:23;22.45;;;6.70;;
65879;SDS011;52661;51.364;6.054;2022-12-01T06:27:49;17.33;;;5.60;;
65879;SDS011;52661;51.364;6.054;2022-12-01T06:30:14;18.03;;;6.43;;
65879;SDS011;52661;51.364;6.054;2022-12-01T06:32:39;15.75;;;6.15;;
65879;SDS011;52661;51.364;6.054;2022-12-01T06:35:05;19.27;;;6.28;;
65879;SDS011;52661;51.364;6.054;2022-12-01T06:37:30;21.30;;;6.15;;
65879;SDS011;52661;51.364;6.054;2022-12-01T06:39:56;19.23;;;6.10;;
65879;SDS011;52661;51.364;6.054;2022-12-01T06:42:21;25.50;;;7.88;;
65879;SDS011;52661;51.364;6.054;2022-12-01T06:44:47;19.77;;;6.32;;
65879;SDS011;52661;51.364;6.054;2022-12-01T06:47:12;30.33;;;8.45;;
65879;SDS011;52661;51.364;6.054;2022-12-01T06:49:37;27.73;;;8.20;;
65879;SDS011;52661;51.364;6.054;2022-12-01T06:52:03;25.90;;;7.45;;
65879;SDS011;52661;51.364;6.054;2022-12-01T06:54:29;25.63;;;8.43;;
65879;SDS011;52661;51.364;6.054;2022-12-01T06:56:55;25.98;;;7.68;;
65879;SDS011;52661;51.364;6.054;2022-12-01T06:59:20;24.83;;;8.23;;
65879;SDS011;52661;51.364;6.054;2022-12-01T07:01:45;22.05;;;7.35;;
65879;SDS011;52661;51.364;6.054;2022-12-01T07:04:11;20.47;;;7.03;;
65879;SDS011;52661;51.364;6.054;2022-12-01T07:06:36;23.80;;;6.80;;
65879;SDS011;52661;51.364;6.054;2022-12-01T07:09:02;19.90;;;6.78;;
65879;SDS011;52661;51.364;6.054;2022-12-01T07:11:27;24.13;;;7.00;;
65879;SDS011;52661;51.364;6.054;2022-12-01T07:13:55;27.10;;;7.35;;
65879;SDS011;52661;51.364;6.054;2022-12-01T07:16:20;20.73;;;6.55;;
65879;SDS011;52661;51.364;6.054;2022-12-01T07:18:46;23.42;;;7.10;;
65879;SDS011;52661;51.364;6.054;2022-12-01T07:21:12;25.90;;;7.40;;
65879;SDS011;52661;51.364;6.054;2022-12-01T07:23:38;36.63;;;9.57;;
65879;SDS011;52661;51.364;6.054;2022-12-01T07:26:09;30.33;;;10.05;;
65879;SDS011;52661;51.364;6.054;2022-12-01T07:28:36;31.17;;;8.85;;
65879;SDS011;52661;51.364;6.054;2022-12-01T07:33:40;32.58;;;10.48;;
65879;SDS011;52661;51.364;6.054;2022-12-01T07:36:06;32.05;;;11.07;;
65879;SDS011;52661;51.364;6.054;2022-12-01T07:38:32;30.73;;;10.55;;
65879;SDS011;52661;51.364;6.054;2022-12-01T07:43:31;33.30;;;11.77;;
65879;SDS011;52661;51.364;6.054;2022-12-01T07:46:04;33.92;;;12.32;;
65879;SDS011;52661;51.364;6.054;2022-12-01T07:48:30;38.35;;;13.25;;
65879;SDS011;52661;51.364;6.054;2022-12-01T07:50:55;38.00;;;13.00;;
65879;SDS011;52661;51.364;6.054;2022-12-01T07:53:20;32.37;;;11.07;;
65879;SDS011;52661;51.364;6.054;2022-12-01T07:55:47;31.85;;;10.70;;
65879;SDS011;52661;51.364;6.054;2022-12-01T07:58:14;32.38;;;11.02;;
65879;SDS011;52661;51.364;6.054;2022-12-01T08:00:39;41.63;;;13.25;;
65879;SDS011;52661;51.364;6.054;2022-12-01T08:03:05;35.97;;;13.20;;
65879;SDS011;52661;51.364;6.054;2022-12-01T08:05:30;33.40;;;12.70;;
65879;SDS011;52661;51.364;6.054;2022-12-01T08:07:55;30.23;;;10.00;;
65879;SDS011;52661;51.364;6.054;2022-12-01T08:10:20;34.93;;;10.00;;
65879;SDS011;52661;51.364;6.054;2022-12-01T08:12:46;35.33;;;11.70;;
65879;SDS011;52661;51.364;6.054;2022-12-01T08:15:11;32.35;;;12.23;;
65879;SDS011;52661;51.364;6.054;2022-12-01T08:17:37;29.60;;;10.73;;
65879;SDS011;52661;51.364;6.054;2022-12-01T08:20:02;32.43;;;10.90;;
65879;SDS011;52661;51.364;6.054;2022-12-01T08:22:27;34.53;;;10.30;;
65879;SDS011;52661;51.364;6.054;2022-12-01T08:24:53;31.57;;;10.40;;
65879;SDS011;52661;51.364;6.054;2022-12-01T08:27:18;31.37;;;10.80;;
65879;SDS011;52661;51.364;6.054;2022-12-01T08:29:43;31.53;;;10.67;;
65879;SDS011;52661;51.364;6.054;2022-12-01T08:32:09;29.07;;;8.63;;
65879;SDS011;52661;51.364;6.054;2022-12-01T08:34:34;33.13;;;10.97;;
65879;SDS011;52661;51.364;6.054;2022-12-01T08:37:02;32.10;;;11.52;;
65879;SDS011;52661;51.364;6.054;2022-12-01T08:39:27;28.63;;;10.73;;
65879;SDS011;52661;51.364;6.054;2022-12-01T08:41:52;35.50;;;12.00;;
65879;SDS011;52661;51.364;6.054;2022-12-01T08:44:18;28.53;;;10.57;;
65879;SDS011;52661;51.364;6.054;2022-12-01T08:46:43;39.77;;;13.43;;
65879;SDS011;52661;51.364;6.054;2022-12-01T08:49:08;35.07;;;10.77;;
65879;SDS011;52661;51.364;6.054;2022-12-01T08:51:33;30.40;;;10.70;;
65879;SDS011;52661;51.364;6.054;2022-12-01T08:54:00;32.80;;;12.05;;
65879;SDS011;52661;51.364;6.054;2022-12-01T08:56:27;38.67;;;11.85;;
65879;SDS011;52661;51.364;6.054;2022-12-01T08:58:55;33.63;;;10.20;;
65879;SDS011;52661;51.364;6.054;2022-12-01T09:01:21;32.08;;;10.40;;
65879;SDS011;52661;51.364;6.054;2022-12-01T09:03:46;31.25;;;10.77;;
65879;SDS011;52661;51.364;6.054;2022-12-01T09:06:13;28.10;;;9.77;;
65879;SDS011;52661;51.364;6.054;2022-12-01T09:08:46;32.47;;;11.70;;
65879;SDS011;52661;51.364;6.054;2022-12-01T09:11:13;40.33;;;13.15;;
65879;SDS011;52661;51.364;6.054;2022-12-01T09:13:41;27.42;;;9.98;;
65879;SDS011;52661;51.364;6.054;2022-12-01T09:16:12;29.40;;;10.35;;
65879;SDS011;52661;51.364;6.054;2022-12-01T09:18:38;30.27;;;10.95;;
65879;SDS011;52661;51.364;6.054;2022-12-01T09:21:24;37.33;;;11.70;;
65879;SDS011;52661;51.364;6.054;2022-12-01T09:23:51;34.10;;;11.55;;
65879;SDS011;52661;51.364;6.054;2022-12-01T09:26:17;37.05;;;10.98;;
65879;SDS011;52661;51.364;6.054;2022-12-01T09:28:44;36.75;;;11.73;;
65879;SDS011;52661;51.364;6.054;2022-12-01T09:31:11;42.38;;;13.82;;
65879;SDS011;52661;51.364;6.054;2022-12-01T09:33:38;36.15;;;12.20;;
65879;SDS011;52661;51.364;6.054;2022-12-01T09:36:04;38.83;;;12.10;;
65879;SDS011;52661;51.364;6.054;2022-12-01T09:38:32;35.70;;;11.85;;
65879;SDS011;52661;51.364;6.054;2022-12-01T09:40:58;43.13;;;14.00;;
65879;SDS011;52661;51.364;6.054;2022-12-01T09:43:28;39.00;;;11.65;;
65879;SDS011;52661;51.364;6.054;2022-12-01T09:46:03;38.50;;;13.00;;
65879;SDS011;52661;51.364;6.054;2022-12-01T09:48:36;39.95;;;12.35;;
65879;SDS011;52661;51.364;6.054;2022-12-01T09:51:23;36.13;;;11.68;;
65879;SDS011;52661;51.364;6.054;2022-12-01T09:53:53;43.90;;;13.95;;
65879;SDS011;52661;51.364;6.054;2022-12-01T09:56:25;39.38;;;13.95;;
65879;SDS011;52661;51.364;6.054;2022-12-01T09:58:55;33.85;;;10.85;;
65879;SDS011;52661;51.364;6.054;2022-12-01T10:01:32;34.45;;;12.55;;
65879;SDS011;52661;51.364;6.054;2022-12-01T10:07:02;42.70;;;13.57;;
65879;SDS011;52661;51.364;6.054;2022-12-01T10:12:20;37.90;;;11.10;;
65879;SDS011;52661;51.364;6.054;2022-12-01T10:14:52;30.25;;;10.20;;
65879;SDS011;52661;51.364;6.054;2022-12-01T10:25:38;38.65;;;12.05;;
65879;SDS011;52661;51.364;6.054;2022-12-01T10:30:48;35.72;;;11.13;;
65879;SDS011;52661;51.364;6.054;2022-12-01T10:33:19;42.17;;;13.38;;
65879;SDS011;52661;51.364;6.054;2022-12-01T10:35:48;36.22;;;10.45;;
65879;SDS011;52661;51.364;6.054;2022-12-01T10:38:36;36.05;;;11.25;;
65879;SDS011;52661;51.364;6.054;2022-12-01T10:41:01;37.78;;;11.75;;
65879;SDS011;52661;51.364;6.054;2022-12-01T10:44:11;42.75;;;11.40;;
65879;SDS011;52661;51.364;6.054;2022-12-01T10:46:24;37.63;;;11.45;;
65879;SDS011;52661;51.364;6.054;2022-12-01T10:48:57;36.53;;;12.73;;
65879;SDS011;52661;51.364;6.054;2022-12-01T10:51:24;31.98;;;10.88;;
65879;SDS011;52661;51.364;6.054;2022-12-01T10:54:07;37.38;;;12.07;;
65879;SDS011;52661;51.364;6.054;2022-12-01T10:56:35;34.92;;;11.50;;
65879;SDS011;52661;51.364;6.054;2022-12-01T10:59:13;28.70;;;10.13;;
65879;SDS011;52661;51.364;6.054;2022-12-01T11:01:47;37.20;;;13.30;;
65879;SDS011;52661;51.364;6.054;2022-12-01T11:04:20;34.50;;;12.13;;
65879;SDS011;52661;51.364;6.054;2022-12-01T11:06:59;37.97;;;11.77;;
65879;SDS011;52661;51.364;6.054;2022-12-01T11:09:25;39.95;;;12.73;;
65879;SDS011;52661;51.364;6.054;2022-12-01T11:12:00;38.72;;;13.35;;
65879;SDS011;52661;51.364;6.054;2022-12-01T11:14:32;33.78;;;11.73;;
65879;SDS011;52661;51.364;6.054;2022-12-01T11:16:58;34.45;;;10.20;;
65879;SDS011;52661;51.364;6.054;2022-12-01T11:19:49;43.95;;;13.80;;
65879;SDS011;52661;51.364;6.054;2022-12-01T11:22:19;30.50;;;10.75;;
65879;SDS011;52661;51.364;6.054;2022-12-01T11:27:21;35.60;;;11.07;;
65879;SDS011;52661;51.364;6.054;2022-12-01T11:29:53;27.58;;;9.98;;
65879;SDS011;52661;51.364;6.054;2022-12-01T11:32:22;28.45;;;10.40;;
65879;SDS011;52661;51.364;6.054;2022-12-01T11:34:52;31.60;;;10.98;;
65879;SDS011;52661;51.364;6.054;2022-12-01T11:37:24;28.50;;;9.73;;
65879;SDS011;52661;51.364;6.054;2022-12-01T11:40:02;32.13;;;10.60;;
65879;SDS011;52661;51.364;6.054;2022-12-01T11:42:30;26.40;;;8.43;;
65879;SDS011;52661;51.364;6.054;2022-12-01T11:45:06;31.40;;;11.23;;
65879;SDS011;52661;51.364;6.054;2022-12-01T11:47:57;23.55;;;8.90;;
65879;SDS011;52661;51.364;6.054;2022-12-01T11:50:24;35.22;;;10.35;;
65879;SDS011;52661;51.364;6.054;2022-12-01T11:52:51;28.70;;;9.80;;
65879;SDS011;52661;51.364;6.054;2022-12-01T11:55:24;26.30;;;10.40;;
65879;SDS011;52661;51.364;6.054;2022-12-01T11:57:53;28.17;;;8.43;;
65879;SDS011;52661;51.364;6.054;2022-12-01T12:00:23;30.02;;;9.60;;
65879;SDS011;52661;51.364;6.054;2022-12-01T12:03:34;26.02;;;8.73;;
65879;SDS011;52661;51.364;6.054;2022-12-01T12:06:05;26.55;;;8.15;;
65879;SDS011;52661;51.364;6.054;2022-12-01T12:08:49;26.00;;;9.82;;
65879;SDS011;52661;51.364;6.054;2022-12-01T12:11:30;26.88;;;8.90;;
65879;SDS011;52661;51.364;6.054;2022-12-01T12:14:22;30.50;;;9.82;;
65879;SDS011;52661;51.364;6.054;2022-12-01T12:25:16;24.20;;;8.57;;
65879;SDS011;52661;51.364;6.054;2022-12-01T12:30:29;23.60;;;8.98;;
65879;SDS011;52661;51.364;6.054;2022-12-01T12:35:43;27.35;;;9.80;;
65879;SDS011;52661;51.364;6.054;2022-12-01T12:41:14;35.80;;;9.07;;
65879;SDS011;52661;51.364;6.054;2022-12-01T12:43:59;31.75;;;10.95;;
65879;SDS011;52661;51.364;6.054;2022-12-01T12:52:12;30.15;;;10.13;;
65879;SDS011;52661;51.364;6.054;2022-12-01T12:57:58;34.90;;;11.35;;
65879;SDS011;52661;51.364;6.054;2022-12-01T13:00:29;31.85;;;11.55;;
65879;SDS011;52661;51.364;6.054;2022-12-01T13:05:45;28.17;;;8.95;;
65879;SDS011;52661;51.364;6.054;2022-12-01T13:08:18;28.70;;;9.45;;
65879;SDS011;52661;51.364;6.054;2022-12-01T13:11:11;26.77;;;9.77;;
65879;SDS011;52661;51.364;6.054;2022-12-01T13:14:06;36.47;;;12.13;;
65879;SDS011;52661;51.364;6.054;2022-12-01T13:16:43;28.85;;;9.75;;
65879;SDS011;52661;51.364;6.054;2022-12-01T13:19:13;28.52;;;10.50;;
65879;SDS011;52661;51.364;6.054;2022-12-01T13:21:44;30.38;;;10.68;;
65879;SDS011;52661;51.364;6.054;2022-12-01T13:24:13;30.92;;;10.63;;
65879;SDS011;52661;51.364;6.054;2022-12-01T13:26:42;30.08;;;10.55;;
65879;SDS011;52661;51.364;6.054;2022-12-01T13:29:13;26.90;;;9.60;;
65879;SDS011;52661;51.364;6.054;2022-12-01T13:31:45;27.80;;;9.35;;
65879;SDS011;52661;51.364;6.054;2022-12-01T13:37:02;41.03;;;13.52;;
65879;SDS011;52661;51.364;6.054;2022-12-01T13:39:32;36.67;;;12.52;;
65879;SDS011;52661;51.364;6.054;2022-12-01T13:42:07;25.58;;;9.07;;
65879;SDS011;52661;51.364;6.054;2022-12-01T13:44:48;30.60;;;10.73;;
65879;SDS011;52661;51.364;6.054;2022-12-01T13:57:31;25.55;;;10.23;;
65879;SDS011;52661;51.364;6.054;2022-12-01T14:02:25;24.40;;;8.23;;
65879;SDS011;52661;51.364;6.054;2022-12-01T14:04:51;30.50;;;9.85;;
65879;SDS011;52661;51.364;6.054;2022-12-01T14:07:33;28.35;;;8.02;;
65879;SDS011;52661;51.364;6.054;2022-12-01T14:10:07;26.73;;;9.60;;
65879;SDS011;52661;51.364;6.054;2022-12-01T14:12:42;28.05;;;9.57;;
65879;SDS011;52661;51.364;6.054;2022-12-01T14:20:33;25.97;;;8.30;;
65879;SDS011;52661;51.364;6.054;2022-12-01T14:36:36;29.27;;;9.45;;
65879;SDS011;52661;51.364;6.054;2022-12-01T14:39:09;26.73;;;8.82;;
65879;SDS011;52661;51.364;6.054;2022-12-01T14:41:45;27.52;;;9.45;;
65879;SDS011;52661;51.364;6.054;2022-12-01T14:44:32;25.33;;;8.13;;
65879;SDS011;52661;51.364;6.054;2022-12-01T14:52:37;22.83;;;7.38;;
65879;SDS011;52661;51.364;6.054;2022-12-01T14:57:45;28.17;;;7.70;;
65879;SDS011;52661;51.364;6.054;2022-12-01T15:00:15;21.27;;;7.80;;
65879;SDS011;52661;51.364;6.054;2022-12-01T15:02:47;25.02;;;7.43;;
65879;SDS011;52661;51.364;6.054;2022-12-01T15:07:40;22.25;;;7.70;;
65879;SDS011;52661;51.364;6.054;2022-12-01T15:10:21;24.60;;;8.18;;
65879;SDS011;52661;51.364;6.054;2022-12-01T15:12:51;24.75;;;8.85;;
65879;SDS011;52661;51.364;6.054;2022-12-01T15:15:21;26.05;;;7.88;;
65879;SDS011;52661;51.364;6.054;2022-12-01T15:17:49;22.92;;;6.95;;
65879;SDS011;52661;51.364;6.054;2022-12-01T15:20:32;23.02;;;7.53;;
65879;SDS011;52661;51.364;6.054;2022-12-01T15:22:59;27.45;;;8.93;;
65879;SDS011;52661;51.364;6.054;2022-12-01T15:25:31;25.02;;;8.27;;
65879;SDS011;52661;51.364;6.054;2022-12-01T15:28:01;19.73;;;6.82;;
65879;SDS011;52661;51.364;6.054;2022-12-01T15:30:26;28.02;;;7.07;;
65879;SDS011;52661;51.364;6.054;2022-12-01T15:32:52;26.92;;;8.57;;
65879;SDS011;52661;51.364;6.054;2022-12-01T15:35:19;27.33;;;7.75;;
65879;SDS011;52661;51.364;6.054;2022-12-01T15:37:46;25.77;;;7.45;;
65879;SDS011;52661;51.364;6.054;2022-12-01T15:40:15;24.58;;;7.65;;
65879;SDS011;52661;51.364;6.054;2022-12-01T15:42:43;25.85;;;8.15;;
65879;SDS011;52661;51.364;6.054;2022-12-01T15:45:16;23.92;;;7.72;;
65879;SDS011;52661;51.364;6.054;2022-12-01T15:47:45;26.55;;;8.05;;
65879;SDS011;52661;51.364;6.054;2022-12-01T15:50:28;23.98;;;8.15;;
65879;SDS011;52661;51.364;6.054;2022-12-01T15:53:24;24.70;;;8.48;;
65879;SDS011;52661;51.364;6.054;2022-12-01T15:55:54;29.70;;;8.85;;
65879;SDS011;52661;51.364;6.054;2022-12-01T15:58:22;27.65;;;8.43;;
65879;SDS011;52661;51.364;6.054;2022-12-01T16:00:56;25.20;;;7.88;;
65879;SDS011;52661;51.364;6.054;2022-12-01T16:03:33;21.10;;;6.45;;
65879;SDS011;52661;51.364;6.054;2022-12-01T16:06:14;22.40;;;7.22;;
65879;SDS011;52661;51.364;6.054;2022-12-01T16:08:40;26.20;;;7.82;;
65879;SDS011;52661;51.364;6.054;2022-12-01T16:11:15;23.92;;;6.68;;
65879;SDS011;52661;51.364;6.054;2022-12-01T16:13:54;17.77;;;6.30;;
65879;SDS011;52661;51.364;6.054;2022-12-01T16:18:56;26.67;;;6.10;;
65879;SDS011;52661;51.364;6.054;2022-12-01T16:21:43;22.90;;;7.10;;
65879;SDS011;52661;51.364;6.054;2022-12-01T16:24:12;22.58;;;7.35;;
65879;SDS011;52661;51.364;6.054;2022-12-01T16:26:53;24.55;;;7.57;;
65879;SDS011;52661;51.364;6.054;2022-12-01T16:29:23;21.80;;;7.25;;
65879;SDS011;52661;51.364;6.054;2022-12-01T16:31:50;29.17;;;8.50;;
65879;SDS011;52661;51.364;6.054;2022-12-01T16:34:19;23.60;;;7.32;;
65879;SDS011;52661;51.364;6.054;2022-12-01T16:36:46;26.33;;;7.97;;
65879;SDS011;52661;51.364;6.054;2022-12-01T16:39:14;26.07;;;8.30;;
65879;SDS011;52661;51.364;6.054;2022-12-01T16:41:39;26.40;;;8.13;;
65879;SDS011;52661;51.364;6.054;2022-12-01T16:44:12;28.17;;;9.77;;
65879;SDS011;52661;51.364;6.054;2022-12-01T16:46:38;36.85;;;9.85;;
65879;SDS011;52661;51.364;6.054;2022-12-01T16:49:04;32.15;;;9.13;;
65879;SDS011;52661;51.364;6.054;2022-12-01T16:51:31;28.42;;;8.55;;
65879;SDS011;52661;51.364;6.054;2022-12-01T16:53:57;28.97;;;9.30;;
65879;SDS011;52661;51.364;6.054;2022-12-01T16:56:23;22.48;;;7.30;;